sensor_id;sensor_type;location;lat;lon;timestamp;pressure;altitude;pressure_sealevel;temperature;humidity
81196;BME280;70671;43.888;-79.394;2024-03-29T00:01:33;98925.41;;;6.68;38.32
81196;BME280;70671;43.888;-79.394;2024-03-29T00:03:59;98895.41;;;6.36;38.68
81196;BME280;70671;43.888;-79.394;2024-03-29T00:06:25;98910.25;;;6.51;38.85
81196;BME280;70671;43.888;-79.394;2024-03-29T00:08:51;98925.56;;;6.61;38.67
81196;BME280;70671;43.888;-79.394;2024-03-29T00:11:18;98924.72;;;6.64;38.74
81196;BME280;70671;43.888;-79.394;2024-03-29T00:13:44;98915.69;;;6.51;38.92
81196;BME280;70671;43.888;-79.394;2024-03-29T00:16:10;98936.06;;;6.59;39.19
81196;BME280;70671;43.888;-79.394;2024-03-29T00:18:37;98939.00;;;6.48;39.37
81196;BME280;70671;43.888;-79.394;2024-03-29T00:21:03;98925.63;;;6.38;39.88
81196;BME280;70671;43.888;-79.394;2024-03-29T00:23:29;98939.72;;;6.33;40.33
81196;BME280;70671;43.888;-79.394;2024-03-29T00:25:55;98924.88;;;6.18;40.03
81196;BME280;70671;43.888;-79.394;2024-03-29T00:28:24;98930.97;;;6.25;40.25
81196;BME280;70671;43.888;-79.394;2024-03-29T00:30:50;98928.91;;;6.10;40.21
81196;BME280;70671;43.888;-79.394;2024-03-29T00:33:16;98954.41;;;6.16;40.11
81196;BME280;70671;43.888;-79.394;2024-03-29T00:35:42;98949.16;;;6.05;39.68
81196;BME280;70671;43.888;-79.394;2024-03-29T00:38:08;98945.41;;;5.99;40.45
81196;BME280;70671;43.888;-79.394;2024-03-29T00:40:35;98965.44;;;6.05;39.75
81196;BME280;70671;43.888;-79.394;2024-03-29T00:43:01;98964.69;;;6.05;39.83
81196;BME280;70671;43.888;-79.394;2024-03-29T00:45:27;98969.78;;;6.03;40.20
81196;BME280;70671;43.888;-79.394;2024-03-29T00:47:54;98964.59;;;5.89;39.81
81196;BME280;70671;43.888;-79.394;2024-03-29T00:50:20;98962.84;;;5.75;39.80
81196;BME280;70671;43.888;-79.394;2024-03-29T00:52:46;98973.72;;;5.75;40.30
81196;BME280;70671;43.888;-79.394;2024-03-29T00:55:14;98967.22;;;5.69;40.30
81196;BME280;70671;43.888;-79.394;2024-03-29T00:57:40;98983.69;;;5.81;39.83
81196;BME280;70671;43.888;-79.394;2024-03-29T01:00:06;98987.69;;;5.73;40.11
81196;BME280;70671;43.888;-79.394;2024-03-29T01:02:32;98992.72;;;5.52;40.36
81196;BME280;70671;43.888;-79.394;2024-03-29T01:04:58;98977.53;;;5.54;40.04
81196;BME280;70671;43.888;-79.394;2024-03-29T01:07:24;98981.66;;;5.62;39.84
81196;BME280;70671;43.888;-79.394;2024-03-29T01:09:50;98971.25;;;5.61;40.17
81196;BME280;70671;43.888;-79.394;2024-03-29T01:12:16;98980.25;;;5.54;40.33
81196;BME280;70671;43.888;-79.394;2024-03-29T01:14:42;98980.97;;;5.35;40.53
81196;BME280;70671;43.888;-79.394;2024-03-29T01:17:08;98987.53;;;5.34;40.95
81196;BME280;70671;43.888;-79.394;2024-03-29T01:19:34;98996.16;;;5.29;40.72
81196;BME280;70671;43.888;-79.394;2024-03-29T01:22:00;98998.97;;;5.22;40.83
81196;BME280;70671;43.888;-79.394;2024-03-29T01:24:25;98966.59;;;5.12;40.65
81196;BME280;70671;43.888;-79.394;2024-03-29T01:26:55;98987.69;;;5.24;40.78
81196;BME280;70671;43.888;-79.394;2024-03-29T01:29:21;98968.72;;;4.97;41.34
81196;BME280;70671;43.888;-79.394;2024-03-29T01:31:46;98997.25;;;5.05;41.28
81196;BME280;70671;43.888;-79.394;2024-03-29T01:34:12;98984.97;;;4.97;41.73
81196;BME280;70671;43.888;-79.394;2024-03-29T01:36:38;98968.91;;;4.86;41.92
81196;BME280;70671;43.888;-79.394;2024-03-29T01:39:04;98963.63;;;4.76;41.85
81196;BME280;70671;43.888;-79.394;2024-03-29T01:41:33;98960.72;;;4.60;42.33
81196;BME280;70671;43.888;-79.394;2024-03-29T01:43:59;98982.78;;;4.58;42.91
81196;BME280;70671;43.888;-79.394;2024-03-29T01:46:26;98966.81;;;4.37;43.07
81196;BME280;70671;43.888;-79.394;2024-03-29T01:48:53;98993.38;;;4.46;43.16
81196;BME280;70671;43.888;-79.394;2024-03-29T01:51:23;98992.56;;;4.49;42.84
81196;BME280;70671;43.888;-79.394;2024-03-29T01:53:51;98980.16;;;4.51;42.93
81196;BME280;70671;43.888;-79.394;2024-03-29T01:56:20;98959.53;;;4.31;43.08
81196;BME280;70671;43.888;-79.394;2024-03-29T01:58:51;98984.66;;;4.31;43.30
81196;BME280;70671;43.888;-79.394;2024-03-29T02:01:19;98996.69;;;4.27;43.27
81196;BME280;70671;43.888;-79.394;2024-03-29T02:03:47;98991.44;;;4.12;45.92
81196;BME280;70671;43.888;-79.394;2024-03-29T02:06:14;98989.47;;;4.16;48.10
81196;BME280;70671;43.888;-79.394;2024-03-29T02:08:41;98974.88;;;4.03;49.28
81196;BME280;70671;43.888;-79.394;2024-03-29T02:11:07;98961.84;;;3.95;49.85
81196;BME280;70671;43.888;-79.394;2024-03-29T02:13:33;98989.81;;;4.18;50.44
81196;BME280;70671;43.888;-79.394;2024-03-29T02:15:59;98980.66;;;4.05;50.79
81196;BME280;70671;43.888;-79.394;2024-03-29T02:18:25;98991.50;;;4.05;52.56
81196;BME280;70671;43.888;-79.394;2024-03-29T02:20:51;98986.28;;;3.84;54.15
81196;BME280;70671;43.888;-79.394;2024-03-29T02:23:20;98981.06;;;3.63;54.08
81196;BME280;70671;43.888;-79.394;2024-03-29T02:25:49;98986.56;;;3.53;54.98
81196;BME280;70671;43.888;-79.394;2024-03-29T02:28:16;98995.06;;;3.51;55.77
81196;BME280;70671;43.888;-79.394;2024-03-29T02:30:42;98999.78;;;3.40;56.41
81196;BME280;70671;43.888;-79.394;2024-03-29T02:33:08;98994.41;;;3.37;57.28
81196;BME280;70671;43.888;-79.394;2024-03-29T02:35:34;98970.66;;;3.07;58.89
81196;BME280;70671;43.888;-79.394;2024-03-29T02:37:59;98994.44;;;3.29;58.31
81196;BME280;70671;43.888;-79.394;2024-03-29T02:40:25;98954.97;;;2.91;58.58
81196;BME280;70671;43.888;-79.394;2024-03-29T02:42:51;98998.44;;;3.11;58.62
81196;BME280;70671;43.888;-79.394;2024-03-29T02:45:17;98989.28;;;2.94;58.66
81196;BME280;70671;43.888;-79.394;2024-03-29T02:47:44;99003.91;;;2.97;58.89
81196;BME280;70671;43.888;-79.394;2024-03-29T02:50:12;98989.34;;;2.84;58.37
81196;BME280;70671;43.888;-79.394;2024-03-29T02:52:38;99008.63;;;2.86;58.75
81196;BME280;70671;43.888;-79.394;2024-03-29T02:55:05;98999.41;;;2.73;58.56
81196;BME280;70671;43.888;-79.394;2024-03-29T02:57:31;99011.00;;;2.70;58.67
81196;BME280;70671;43.888;-79.394;2024-03-29T02:59:57;99015.69;;;2.51;59.94
81196;BME280;70671;43.888;-79.394;2024-03-29T03:02:24;98994.16;;;2.37;59.25
81196;BME280;70671;43.888;-79.394;2024-03-29T03:04:50;99000.31;;;2.38;59.68
81196;BME280;70671;43.888;-79.394;2024-03-29T03:07:15;99011.09;;;2.48;59.84
81196;BME280;70671;43.888;-79.394;2024-03-29T03:10:00;98982.22;;;2.38;59.34
81196;BME280;70671;43.888;-79.394;2024-03-29T03:12:44;98991.84;;;2.39;59.23
81196;BME280;70671;43.888;-79.394;2024-03-29T03:15:10;98948.84;;;1.83;61.07
81196;BME280;70671;43.888;-79.394;2024-03-29T03:17:36;99002.72;;;2.11;60.79
81196;BME280;70671;43.888;-79.394;2024-03-29T03:20:02;98996.59;;;1.90;62.36
81196;BME280;70671;43.888;-79.394;2024-03-29T03:22:30;98990.06;;;1.73;62.87
81196;BME280;70671;43.888;-79.394;2024-03-29T03:24:56;98999.69;;;1.74;62.28
81196;BME280;70671;43.888;-79.394;2024-03-29T03:27:22;99000.84;;;1.66;62.85
81196;BME280;70671;43.888;-79.394;2024-03-29T03:29:49;98988.91;;;1.60;62.61
81196;BME280;70671;43.888;-79.394;2024-03-29T03:32:15;98988.91;;;1.56;62.71
81196;BME280;70671;43.888;-79.394;2024-03-29T03:34:41;98994.31;;;1.46;63.17
81196;BME280;70671;43.888;-79.394;2024-03-29T03:37:07;98990.47;;;1.33;63.96
81196;BME280;70671;43.888;-79.394;2024-03-29T03:39:33;98985.81;;;1.30;63.57
81196;BME280;70671;43.888;-79.394;2024-03-29T03:41:58;98981.97;;;1.13;63.96
81196;BME280;70671;43.888;-79.394;2024-03-29T03:44:24;98986.56;;;1.13;63.99
81196;BME280;70671;43.888;-79.394;2024-03-29T03:46:51;98971.94;;;1.00;63.68
81196;BME280;70671;43.888;-79.394;2024-03-29T03:49:18;98984.63;;;1.03;63.21
81196;BME280;70671;43.888;-79.394;2024-03-29T03:51:44;98992.72;;;1.03;63.53
81196;BME280;70671;43.888;-79.394;2024-03-29T03:54:10;98985.75;;;0.77;65.60
81196;BME280;70671;43.888;-79.394;2024-03-29T03:56:36;98999.94;;;0.70;65.65
81196;BME280;70671;43.888;-79.394;2024-03-29T03:59:02;98993.38;;;0.64;65.88
81196;BME280;70671;43.888;-79.394;2024-03-29T04:01:29;98986.84;;;0.62;65.28
81196;BME280;70671;43.888;-79.394;2024-03-29T04:03:55;98967.19;;;0.47;64.67
81196;BME280;70671;43.888;-79.394;2024-03-29T04:06:21;98976.84;;;0.59;64.37
81196;BME280;70671;43.888;-79.394;2024-03-29T04:08:47;98998.38;;;0.62;64.53
81196;BME280;70671;43.888;-79.394;2024-03-29T04:11:13;98977.22;;;0.61;65.27
81196;BME280;70671;43.888;-79.394;2024-03-29T04:13:39;98946.00;;;0.35;66.59
81196;BME280;70671;43.888;-79.394;2024-03-29T04:16:06;98979.50;;;0.55;65.53
81196;BME280;70671;43.888;-79.394;2024-03-29T04:18:35;98968.72;;;0.48;66.58
81196;BME280;70671;43.888;-79.394;2024-03-29T04:21:02;98967.16;;;0.44;66.02
81196;BME280;70671;43.888;-79.394;2024-03-29T04:23:28;98967.50;;;0.35;67.59
81196;BME280;70671;43.888;-79.394;2024-03-29T04:25:56;98943.97;;;0.11;68.40
81196;BME280;70671;43.888;-79.394;2024-03-29T04:28:22;98970.19;;;0.35;68.00
81196;BME280;70671;43.888;-79.394;2024-03-29T04:30:55;98972.91;;;0.35;67.86
81196;BME280;70671;43.888;-79.394;2024-03-29T04:33:21;98979.00;;;0.25;68.53
81196;BME280;70671;43.888;-79.394;2024-03-29T04:36:06;98970.13;;;0.18;67.73
81196;BME280;70671;43.888;-79.394;2024-03-29T04:38:32;98953.16;;;0.03;67.56
81196;BME280;70671;43.888;-79.394;2024-03-29T04:40:58;98983.19;;;0.19;67.84
81196;BME280;70671;43.888;-79.394;2024-03-29T04:43:26;98980.56;;;0.26;68.07
81196;BME280;70671;43.888;-79.394;2024-03-29T04:48:31;98978.66;;;0.34;68.55
81196;BME280;70671;43.888;-79.394;2024-03-29T04:50:57;98983.31;;;0.47;68.87
81196;BME280;70671;43.888;-79.394;2024-03-29T04:53:23;98969.16;;;0.61;68.80
81196;BME280;70671;43.888;-79.394;2024-03-29T04:55:56;98973.72;;;0.53;68.85
81196;BME280;70671;43.888;-79.394;2024-03-29T04:58:26;98979.53;;;0.62;68.85
81196;BME280;70671;43.888;-79.394;2024-03-29T05:00:56;98950.63;;;0.35;69.32
81196;BME280;70671;43.888;-79.394;2024-03-29T05:03:23;98934.00;;;0.15;69.60
81196;BME280;70671;43.888;-79.394;2024-03-29T05:05:52;98974.06;;;0.34;69.56
81196;BME280;70671;43.888;-79.394;2024-03-29T05:08:19;98952.03;;;0.11;69.54
81196;BME280;70671;43.888;-79.394;2024-03-29T05:10:46;98977.81;;;0.19;69.96
81196;BME280;70671;43.888;-79.394;2024-03-29T05:13:12;98974.72;;;0.17;69.94
81196;BME280;70671;43.888;-79.394;2024-03-29T05:15:38;98975.84;;;0.13;70.03
81196;BME280;70671;43.888;-79.394;2024-03-29T05:18:04;98968.56;;;0.06;70.20
81196;BME280;70671;43.888;-79.394;2024-03-29T05:20:30;98983.59;;;0.21;69.91
81196;BME280;70671;43.888;-79.394;2024-03-29T05:22:58;98978.66;;;0.37;70.26
81196;BME280;70671;43.888;-79.394;2024-03-29T05:25:24;98981.00;;;0.42;69.91
81196;BME280;70671;43.888;-79.394;2024-03-29T05:27:50;98989.47;;;0.44;69.76
81196;BME280;70671;43.888;-79.394;2024-03-29T05:30:16;98982.56;;;0.47;69.89
81196;BME280;70671;43.888;-79.394;2024-03-29T05:32:43;98990.25;;;0.48;69.90
81196;BME280;70671;43.888;-79.394;2024-03-29T05:35:10;98963.31;;;0.34;69.55
81196;BME280;70671;43.888;-79.394;2024-03-29T05:37:36;98969.47;;;0.35;69.37
81196;BME280;70671;43.888;-79.394;2024-03-29T05:40:03;98970.19;;;0.28;69.60
81196;BME280;70671;43.888;-79.394;2024-03-29T05:42:33;98983.25;;;0.26;70.04
81196;BME280;70671;43.888;-79.394;2024-03-29T05:45:01;98976.69;;;0.20;70.55
81196;BME280;70671;43.888;-79.394;2024-03-29T05:47:27;98973.22;;;0.20;70.79
81196;BME280;70671;43.888;-79.394;2024-03-29T05:49:54;98974.00;;;0.27;70.45
81196;BME280;70671;43.888;-79.394;2024-03-29T05:52:20;98980.13;;;0.17;70.92
81196;BME280;70671;43.888;-79.394;2024-03-29T05:54:48;98953.94;;;0.00;70.75
81196;BME280;70671;43.888;-79.394;2024-03-29T05:57:14;98974.28;;;0.01;71.46
81196;BME280;70671;43.888;-79.394;2024-03-29T05:59:41;98951.50;;;-0.19;71.58
81196;BME280;70671;43.888;-79.394;2024-03-29T06:02:07;98967.78;;;0.09;71.27
81196;BME280;70671;43.888;-79.394;2024-03-29T06:04:33;98967.72;;;-0.05;71.42
81196;BME280;70671;43.888;-79.394;2024-03-29T06:07:03;98964.56;;;-0.14;71.97
81196;BME280;70671;43.888;-79.394;2024-03-29T06:09:29;98959.59;;;-0.16;71.86
81196;BME280;70671;43.888;-79.394;2024-03-29T06:11:56;98958.41;;;-0.18;72.26
81196;BME280;70671;43.888;-79.394;2024-03-29T06:14:26;98952.59;;;-0.27;71.87
81196;BME280;70671;43.888;-79.394;2024-03-29T06:17:10;98930.63;;;-0.43;71.35
81196;BME280;70671;43.888;-79.394;2024-03-29T06:19:49;98949.19;;;-0.21;71.24
81196;BME280;70671;43.888;-79.394;2024-03-29T06:22:17;98947.66;;;-0.18;70.92
81196;BME280;70671;43.888;-79.394;2024-03-29T06:24:43;98960.34;;;-0.15;71.63
81196;BME280;70671;43.888;-79.394;2024-03-29T06:27:10;98964.94;;;-0.19;71.62
81196;BME280;70671;43.888;-79.394;2024-03-29T06:29:37;98967.56;;;-0.26;71.58
81196;BME280;70671;43.888;-79.394;2024-03-29T06:32:03;98965.97;;;-0.38;71.74
81196;BME280;70671;43.888;-79.394;2024-03-29T06:34:30;98937.81;;;-0.58;71.48
81196;BME280;70671;43.888;-79.394;2024-03-29T06:36:57;98965.16;;;-0.42;72.13
81196;BME280;70671;43.888;-79.394;2024-03-29T06:39:23;98969.03;;;-0.39;71.38
81196;BME280;70671;43.888;-79.394;2024-03-29T06:41:48;98908.88;;;-0.78;72.34
81196;BME280;70671;43.888;-79.394;2024-03-29T06:44:14;98965.84;;;-0.55;73.46
81196;BME280;70671;43.888;-79.394;2024-03-29T06:46:40;98955.84;;;-0.58;73.79
81196;BME280;70671;43.888;-79.394;2024-03-29T06:49:06;98967.38;;;-0.54;73.51
81196;BME280;70671;43.888;-79.394;2024-03-29T06:51:32;98951.22;;;-0.61;73.69
81196;BME280;70671;43.888;-79.394;2024-03-29T06:53:58;98942.78;;;-0.60;73.59
81196;BME280;70671;43.888;-79.394;2024-03-29T06:56:24;98949.03;;;-0.45;73.42
81196;BME280;70671;43.888;-79.394;2024-03-29T06:58:50;98947.16;;;-0.41;73.14
81196;BME280;70671;43.888;-79.394;2024-03-29T07:01:16;98943.34;;;-0.33;72.63
81196;BME280;70671;43.888;-79.394;2024-03-29T07:03:41;98930.63;;;-0.43;72.67
81196;BME280;70671;43.888;-79.394;2024-03-29T07:06:08;98933.34;;;-0.40;72.16
81196;BME280;70671;43.888;-79.394;2024-03-29T07:08:34;98916.81;;;-0.42;71.89
81196;BME280;70671;43.888;-79.394;2024-03-29T07:11:01;98956.50;;;-0.18;72.19
81196;BME280;70671;43.888;-79.394;2024-03-29T07:13:29;98955.00;;;-0.12;71.97
81196;BME280;70671;43.888;-79.394;2024-03-29T07:16:00;98950.06;;;0.01;71.99
81196;BME280;70671;43.888;-79.394;2024-03-29T07:18:26;98947.44;;;0.12;70.78
81196;BME280;70671;43.888;-79.394;2024-03-29T07:20:53;98942.06;;;0.12;70.54
81196;BME280;70671;43.888;-79.394;2024-03-29T07:23:19;98947.84;;;0.21;70.43
81196;BME280;70671;43.888;-79.394;2024-03-29T07:25:58;98945.53;;;0.12;70.28
81196;BME280;70671;43.888;-79.394;2024-03-29T07:28:25;98937.06;;;0.10;70.24
81196;BME280;70671;43.888;-79.394;2024-03-29T07:30:51;98936.69;;;0.12;70.34
81196;BME280;70671;43.888;-79.394;2024-03-29T07:33:19;98953.66;;;0.26;70.15
81196;BME280;70671;43.888;-79.394;2024-03-29T07:35:47;98949.84;;;0.34;70.06
81196;BME280;70671;43.888;-79.394;2024-03-29T07:38:13;98946.72;;;0.18;70.96
81196;BME280;70671;43.888;-79.394;2024-03-29T07:40:43;98903.59;;;-0.07;70.76
81196;BME280;70671;43.888;-79.394;2024-03-29T07:43:09;98954.41;;;0.23;70.53
81196;BME280;70671;43.888;-79.394;2024-03-29T07:45:35;98956.34;;;0.26;71.08
81196;BME280;70671;43.888;-79.394;2024-03-29T07:48:01;98934.78;;;0.19;71.07
81196;BME280;70671;43.888;-79.394;2024-03-29T07:50:27;98959.03;;;0.30;71.00
81196;BME280;70671;43.888;-79.394;2024-03-29T07:52:53;98945.59;;;0.26;70.80
81196;BME280;70671;43.888;-79.394;2024-03-29T07:55:19;98943.31;;;0.28;71.26
81196;BME280;70671;43.888;-79.394;2024-03-29T07:57:45;98947.50;;;0.29;71.08
81196;BME280;70671;43.888;-79.394;2024-03-29T08:00:13;98832.34;;;-0.51;71.84
81196;BME280;70671;43.888;-79.394;2024-03-29T08:02:39;98933.22;;;0.11;72.13
81196;BME280;70671;43.888;-79.394;2024-03-29T08:05:05;98935.22;;;0.28;72.34
81196;BME280;70671;43.888;-79.394;2024-03-29T08:07:32;98935.25;;;0.35;72.00
81196;BME280;70671;43.888;-79.394;2024-03-29T08:09:58;98932.88;;;0.20;72.06
81196;BME280;70671;43.888;-79.394;2024-03-29T08:12:24;98918.28;;;0.21;72.48
81196;BME280;70671;43.888;-79.394;2024-03-29T08:14:50;98934.06;;;0.22;72.89
81196;BME280;70671;43.888;-79.394;2024-03-29T08:17:15;98937.88;;;0.21;72.90
81196;BME280;70671;43.888;-79.394;2024-03-29T08:19:42;98910.94;;;0.11;72.80
81196;BME280;70671;43.888;-79.394;2024-03-29T08:22:08;98924.38;;;0.07;72.92
81196;BME280;70671;43.888;-79.394;2024-03-29T08:24:37;98942.47;;;0.17;73.43
81196;BME280;70671;43.888;-79.394;2024-03-29T08:27:03;98940.19;;;0.19;73.58
81196;BME280;70671;43.888;-79.394;2024-03-29T08:29:29;98947.50;;;0.26;73.33
81196;BME280;70671;43.888;-79.394;2024-03-29T08:31:55;98936.69;;;0.15;73.75
81196;BME280;70671;43.888;-79.394;2024-03-29T08:34:22;98934.78;;;0.19;73.52
81196;BME280;70671;43.888;-79.394;2024-03-29T08:36:48;98930.19;;;0.16;73.81
81196;BME280;70671;43.888;-79.394;2024-03-29T08:39:18;98930.94;;;0.17;73.87
81196;BME280;70671;43.888;-79.394;2024-03-29T08:41:44;98924.75;;;0.02;73.85
81196;BME280;70671;43.888;-79.394;2024-03-29T08:44:11;98937.03;;;0.07;74.19
81196;BME280;70671;43.888;-79.394;2024-03-29T08:46:37;98942.84;;;0.16;73.61
81196;BME280;70671;43.888;-79.394;2024-03-29T08:49:02;98913.19;;;-0.02;74.03
81196;BME280;70671;43.888;-79.394;2024-03-29T08:51:28;98934.38;;;0.10;74.20
81196;BME280;70671;43.888;-79.394;2024-03-29T08:53:55;98942.53;;;0.31;73.52
81196;BME280;70671;43.888;-79.394;2024-03-29T08:56:23;98936.00;;;0.32;73.30
81196;BME280;70671;43.888;-79.394;2024-03-29T08:58:49;98934.09;;;0.36;72.89
81196;BME280;70671;43.888;-79.394;2024-03-29T09:01:15;98956.41;;;0.47;73.13
81196;BME280;70671;43.888;-79.394;2024-03-29T09:03:41;98946.09;;;0.60;72.66
81196;BME280;70671;43.888;-79.394;2024-03-29T09:06:07;98948.06;;;0.73;71.82
81196;BME280;70671;43.888;-79.394;2024-03-29T09:08:33;98952.66;;;0.73;72.47
81196;BME280;70671;43.888;-79.394;2024-03-29T09:10:59;98946.53;;;0.87;71.63
81196;BME280;70671;43.888;-79.394;2024-03-29T09:13:26;98948.84;;;0.77;72.04
81196;BME280;70671;43.888;-79.394;2024-03-29T09:15:52;98929.97;;;0.74;71.83
81196;BME280;70671;43.888;-79.394;2024-03-29T09:18:18;98944.22;;;0.81;71.96
81196;BME280;70671;43.888;-79.394;2024-03-29T09:20:59;98935.38;;;0.84;71.31
81196;BME280;70671;43.888;-79.394;2024-03-29T09:23:26;98931.16;;;0.83;70.92
81196;BME280;70671;43.888;-79.394;2024-03-29T09:25:55;98944.63;;;1.05;70.31
81196;BME280;70671;43.888;-79.394;2024-03-29T09:28:24;98939.22;;;0.91;70.97
81196;BME280;70671;43.888;-79.394;2024-03-29T09:30:56;98939.63;;;0.86;70.88
81196;BME280;70671;43.888;-79.394;2024-03-29T09:33:22;98938.84;;;0.89;70.16
81196;BME280;70671;43.888;-79.394;2024-03-29T09:35:48;98941.16;;;1.01;69.67
81196;BME280;70671;43.888;-79.394;2024-03-29T09:38:14;98928.06;;;0.74;69.85
81196;BME280;70671;43.888;-79.394;2024-03-29T09:40:40;98919.97;;;0.78;69.74
81196;BME280;70671;43.888;-79.394;2024-03-29T09:43:06;98944.97;;;0.78;70.49
81196;BME280;70671;43.888;-79.394;2024-03-29T09:45:35;98946.47;;;0.62;70.94
81196;BME280;70671;43.888;-79.394;2024-03-29T09:48:08;98926.81;;;0.47;70.52
81196;BME280;70671;43.888;-79.394;2024-03-29T09:50:37;98931.84;;;0.52;70.15
81196;BME280;70671;43.888;-79.394;2024-03-29T09:53:06;98830.84;;;-0.45;70.64
81196;BME280;70671;43.888;-79.394;2024-03-29T09:55:35;98951.06;;;0.61;69.80
81196;BME280;70671;43.888;-79.394;2024-03-29T09:58:02;98958.75;;;0.59;70.04
81196;BME280;70671;43.888;-79.394;2024-03-29T10:00:28;98952.59;;;0.48;69.49
81196;BME280;70671;43.888;-79.394;2024-03-29T10:02:56;98963.34;;;0.52;69.59
81196;BME280;70671;43.888;-79.394;2024-03-29T10:05:29;98962.19;;;0.42;69.80
81196;BME280;70671;43.888;-79.394;2024-03-29T10:07:57;98947.91;;;0.31;69.50
81196;BME280;70671;43.888;-79.394;2024-03-29T10:10:33;98934.06;;;0.22;69.77
81196;BME280;70671;43.888;-79.394;2024-03-29T10:12:59;98953.28;;;0.31;69.68
81196;BME280;70671;43.888;-79.394;2024-03-29T10:15:25;98954.03;;;0.25;69.73
81196;BME280;70671;43.888;-79.394;2024-03-29T10:17:53;98949.03;;;0.20;69.83
81196;BME280;70671;43.888;-79.394;2024-03-29T10:20:19;98957.09;;;0.27;70.01
81196;BME280;70671;43.888;-79.394;2024-03-29T10:22:47;98958.19;;;0.12;70.15
81196;BME280;70671;43.888;-79.394;2024-03-29T10:25:14;98964.03;;;0.24;70.31
81196;BME280;70671;43.888;-79.394;2024-03-29T10:27:40;98948.97;;;0.13;70.36
81196;BME280;70671;43.888;-79.394;2024-03-29T10:30:07;98961.66;;;0.12;70.74
81196;BME280;70671;43.888;-79.394;2024-03-29T10:32:38;98961.63;;;0.05;70.95
81196;BME280;70671;43.888;-79.394;2024-03-29T10:35:08;98967.00;;;0.05;70.63
81196;BME280;70671;43.888;-79.394;2024-03-29T10:37:36;98934.59;;;-0.23;71.35
81196;BME280;70671;43.888;-79.394;2024-03-29T10:40:11;98948.41;;;-0.25;71.81
81196;BME280;70671;43.888;-79.394;2024-03-29T10:42:41;98944.94;;;-0.25;71.81
81196;BME280;70671;43.888;-79.394;2024-03-29T10:45:08;98957.63;;;-0.22;71.71
81196;BME280;70671;43.888;-79.394;2024-03-29T10:47:34;98964.16;;;-0.20;71.76
81196;BME280;70671;43.888;-79.394;2024-03-29T10:50:00;98923.31;;;-0.46;71.76
81196;BME280;70671;43.888;-79.394;2024-03-29T10:52:26;98928.19;;;-0.62;72.23
81196;BME280;70671;43.888;-79.394;2024-03-29T10:54:53;98963.28;;;-0.34;72.36
81196;BME280;70671;43.888;-79.394;2024-03-29T10:57:24;98963.75;;;-0.25;71.82
81196;BME280;70671;43.888;-79.394;2024-03-29T11:00:17;98976.72;;;-0.34;72.03
81196;BME280;70671;43.888;-79.394;2024-03-29T11:02:48;98974.81;;;-0.37;72.14
81196;BME280;70671;43.888;-79.394;2024-03-29T11:05:16;98974.03;;;-0.34;72.12
81196;BME280;70671;43.888;-79.394;2024-03-29T11:07:43;98980.56;;;-0.35;71.89
81196;BME280;70671;43.888;-79.394;2024-03-29T11:10:17;98986.75;;;-0.28;71.92
81196;BME280;70671;43.888;-79.394;2024-03-29T11:13:12;98985.97;;;-0.32;71.81
81196;BME280;70671;43.888;-79.394;2024-03-29T11:15:41;98980.56;;;-0.35;71.40
81196;BME280;70671;43.888;-79.394;2024-03-29T11:18:10;98984.38;;;-0.36;71.63
81196;BME280;70671;43.888;-79.394;2024-03-29T11:20:37;98977.31;;;-0.62;72.19
81196;BME280;70671;43.888;-79.394;2024-03-29T11:23:11;98995.84;;;-0.43;72.36
81196;BME280;70671;43.888;-79.394;2024-03-29T11:25:43;98969.25;;;-0.58;72.47
81196;BME280;70671;43.888;-79.394;2024-03-29T11:28:11;98979.69;;;-0.50;72.43
81196;BME280;70671;43.888;-79.394;2024-03-29T11:30:49;98981.31;;;-0.38;71.76
81196;BME280;70671;43.888;-79.394;2024-03-29T11:33:45;98979.78;;;-0.39;72.44
81196;BME280;70671;43.888;-79.394;2024-03-29T11:36:19;98968.97;;;-0.43;72.37
81196;BME280;70671;43.888;-79.394;2024-03-29T11:38:54;98991.31;;;-0.35;72.66
81196;BME280;70671;43.888;-79.394;2024-03-29T11:41:26;98975.28;;;-0.25;71.76
81196;BME280;70671;43.888;-79.394;2024-03-29T11:43:54;98996.72;;;-0.28;72.22
81196;BME280;70671;43.888;-79.394;2024-03-29T11:46:20;98984.47;;;-0.26;72.44
81196;BME280;70671;43.888;-79.394;2024-03-29T11:48:46;98956.69;;;-0.47;72.58
81196;BME280;70671;43.888;-79.394;2024-03-29T11:51:17;98993.81;;;-0.06;71.84
81196;BME280;70671;43.888;-79.394;2024-03-29T11:53:44;99005.34;;;-0.05;71.59
81196;BME280;70671;43.888;-79.394;2024-03-29T11:56:11;98993.16;;;0.12;71.12
81196;BME280;70671;43.888;-79.394;2024-03-29T11:58:40;99005.50;;;0.23;70.34
81196;BME280;70671;43.888;-79.394;2024-03-29T12:01:07;98999.31;;;0.19;70.77
81196;BME280;70671;43.888;-79.394;2024-03-29T12:03:40;99003.66;;;0.38;70.30
81196;BME280;70671;43.888;-79.394;2024-03-29T12:06:07;98991.38;;;0.47;69.73
81196;BME280;70671;43.888;-79.394;2024-03-29T12:08:40;98990.25;;;0.55;69.04
81196;BME280;70671;43.888;-79.394;2024-03-29T12:11:08;98996.53;;;0.88;67.32
81196;BME280;70671;43.888;-79.394;2024-03-29T12:13:34;98986.22;;;1.14;65.61
81196;BME280;70671;43.888;-79.394;2024-03-29T12:16:01;98992.75;;;1.52;64.61
81196;BME280;70671;43.888;-79.394;2024-03-29T12:18:27;98993.53;;;1.56;62.96
81196;BME280;70671;43.888;-79.394;2024-03-29T12:20:54;99000.47;;;1.71;61.58
81196;BME280;70671;43.888;-79.394;2024-03-29T12:23:21;99000.44;;;1.78;62.11
81196;BME280;70671;43.888;-79.394;2024-03-29T12:25:49;99003.91;;;1.96;61.70
81196;BME280;70671;43.888;-79.394;2024-03-29T12:28:16;99003.53;;;1.94;60.40
81196;BME280;70671;43.888;-79.394;2024-03-29T12:30:47;99008.88;;;2.15;60.33
81196;BME280;70671;43.888;-79.394;2024-03-29T12:33:14;98996.56;;;2.07;58.83
81196;BME280;70671;43.888;-79.394;2024-03-29T12:35:42;98963.88;;;1.77;58.54
81196;BME280;70671;43.888;-79.394;2024-03-29T12:38:11;98981.19;;;1.83;58.83
81196;BME280;70671;43.888;-79.394;2024-03-29T12:40:38;98998.13;;;1.87;58.12
81196;BME280;70671;43.888;-79.394;2024-03-29T12:43:06;99001.97;;;2.04;57.64
81196;BME280;70671;43.888;-79.394;2024-03-29T12:45:35;99007.75;;;1.95;57.75
81196;BME280;70671;43.888;-79.394;2024-03-29T12:48:01;98997.75;;;1.85;57.16
81196;BME280;70671;43.888;-79.394;2024-03-29T12:50:29;98973.47;;;1.99;57.27
81196;BME280;70671;43.888;-79.394;2024-03-29T12:52:59;99009.69;;;1.98;56.54